sensor_id;sensor_type;location;lat;lon;timestamp;P1;durP1;ratioP1;P2;durP2;ratioP2
39370;SDS011;25099;51.946;4.838;2023-04-29T00:00:38;38.90;;;24.13;;
39370;SDS011;25099;51.946;4.838;2023-04-29T00:03:03;40.65;;;24.02;;
39370;SDS011;25099;51.946;4.838;2023-04-29T00:05:29;35.20;;;22.77;;
39370;SDS011;25099;51.946;4.838;2023-04-29T00:07:55;42.42;;;20.83;;
39370;SDS011;25099;51.946;4.838;2023-04-29T00:10:21;33.35;;;21.25;;
39370;SDS011;25099;51.946;4.838;2023-04-29T00:12:47;31.60;;;22.00;;
39370;SDS011;25099;51.946;4.838;2023-04-29T00:15:13;39.17;;;22.13;;
39370;SDS011;25099;51.946;4.838;2023-04-29T00:17:39;38.13;;;22.80;;
39370;SDS011;25099;51.946;4.838;2023-04-29T00:20:04;42.88;;;22.58;;
39370;SDS011;25099;51.946;4.838;2023-04-29T00:22:31;43.70;;;23.13;;
39370;SDS011;25099;51.946;4.838;2023-04-29T00:24:57;43.90;;;21.52;;
39370;SDS011;25099;51.946;4.838;2023-04-29T00:27:22;43.55;;;22.25;;
39370;SDS011;25099;51.946;4.838;2023-04-29T00:29:48;44.17;;;23.40;;
39370;SDS011;25099;51.946;4.838;2023-04-29T00:32:13;47.92;;;24.08;;
39370;SDS011;25099;51.946;4.838;2023-04-29T00:34:39;46.15;;;24.20;;
39370;SDS011;25099;51.946;4.838;2023-04-29T00:37:04;40.58;;;23.73;;
39370;SDS011;25099;51.946;4.838;2023-04-29T00:39:30;50.00;;;25.38;;
39370;SDS011;25099;51.946;4.838;2023-04-29T00:41:55;48.83;;;23.58;;
39370;SDS011;25099;51.946;4.838;2023-04-29T00:44:21;46.72;;;23.77;;
39370;SDS011;25099;51.946;4.838;2023-04-29T00:46:47;42.08;;;22.20;;
39370;SDS011;25099;51.946;4.838;2023-04-29T00:49:12;43.50;;;24.60;;
39370;SDS011;25099;51.946;4.838;2023-04-29T00:51:38;36.13;;;23.88;;
39370;SDS011;25099;51.946;4.838;2023-04-29T00:54:06;38.15;;;23.40;;
39370;SDS011;25099;51.946;4.838;2023-04-29T00:56:33;48.33;;;23.92;;
39370;SDS011;25099;51.946;4.838;2023-04-29T00:59:00;50.10;;;25.73;;
39370;SDS011;25099;51.946;4.838;2023-04-29T01:01:27;46.47;;;24.02;;
39370;SDS011;25099;51.946;4.838;2023-04-29T01:03:54;53.90;;;27.27;;
39370;SDS011;25099;51.946;4.838;2023-04-29T01:06:32;50.58;;;28.25;;
39370;SDS011;25099;51.946;4.838;2023-04-29T01:09:22;54.92;;;28.25;;
39370;SDS011;25099;51.946;4.838;2023-04-29T01:14:40;55.60;;;25.73;;
39370;SDS011;25099;51.946;4.838;2023-04-29T01:17:14;47.65;;;24.92;;
39370;SDS011;25099;51.946;4.838;2023-04-29T01:19:44;35.72;;;24.58;;
39370;SDS011;25099;51.946;4.838;2023-04-29T01:22:14;40.70;;;22.05;;
39370;SDS011;25099;51.946;4.838;2023-04-29T01:24:42;43.28;;;24.15;;
39370;SDS011;25099;51.946;4.838;2023-04-29T01:27:13;44.50;;;24.65;;
39370;SDS011;25099;51.946;4.838;2023-04-29T01:43:49;36.08;;;24.30;;
39370;SDS011;25099;51.946;4.838;2023-04-29T01:46:16;36.88;;;24.05;;
39370;SDS011;25099;51.946;4.838;2023-04-29T01:48:44;39.78;;;24.80;;
39370;SDS011;25099;51.946;4.838;2023-04-29T01:51:10;43.70;;;25.35;;
39370;SDS011;25099;51.946;4.838;2023-04-29T01:53:36;40.70;;;24.67;;
39370;SDS011;25099;51.946;4.838;2023-04-29T01:56:04;41.97;;;26.35;;
39370;SDS011;25099;51.946;4.838;2023-04-29T01:58:31;39.33;;;25.55;;
39370;SDS011;25099;51.946;4.838;2023-04-29T02:00:56;45.90;;;27.15;;
39370;SDS011;25099;51.946;4.838;2023-04-29T02:03:22;38.75;;;24.40;;
39370;SDS011;25099;51.946;4.838;2023-04-29T02:05:47;40.90;;;25.42;;
39370;SDS011;25099;51.946;4.838;2023-04-29T02:08:14;38.90;;;24.30;;
39370;SDS011;25099;51.946;4.838;2023-04-29T02:10:40;42.17;;;23.55;;
39370;SDS011;25099;51.946;4.838;2023-04-29T02:13:06;40.47;;;23.10;;
39370;SDS011;25099;51.946;4.838;2023-04-29T02:15:32;41.00;;;24.88;;
39370;SDS011;25099;51.946;4.838;2023-04-29T02:17:57;36.38;;;23.02;;
39370;SDS011;25099;51.946;4.838;2023-04-29T02:20:23;32.08;;;22.88;;
39370;SDS011;25099;51.946;4.838;2023-04-29T02:22:49;36.50;;;22.83;;
39370;SDS011;25099;51.946;4.838;2023-04-29T02:25:14;42.38;;;23.92;;
39370;SDS011;25099;51.946;4.838;2023-04-29T02:27:40;34.42;;;22.85;;
39370;SDS011;25099;51.946;4.838;2023-04-29T02:30:06;42.42;;;23.67;;
39370;SDS011;25099;51.946;4.838;2023-04-29T02:32:32;36.42;;;23.73;;
39370;SDS011;25099;51.946;4.838;2023-04-29T02:34:57;41.85;;;23.80;;
39370;SDS011;25099;51.946;4.838;2023-04-29T02:37:24;33.25;;;21.77;;
39370;SDS011;25099;51.946;4.838;2023-04-29T02:39:49;34.95;;;21.08;;
39370;SDS011;25099;51.946;4.838;2023-04-29T02:42:15;30.35;;;20.08;;
39370;SDS011;25099;51.946;4.838;2023-04-29T02:44:40;25.35;;;18.80;;
39370;SDS011;25099;51.946;4.838;2023-04-29T02:47:06;29.88;;;19.63;;
39370;SDS011;25099;51.946;4.838;2023-04-29T02:49:32;30.02;;;19.73;;
39370;SDS011;25099;51.946;4.838;2023-04-29T02:51:57;34.55;;;19.45;;
39370;SDS011;25099;51.946;4.838;2023-04-29T02:54:23;25.05;;;18.85;;
39370;SDS011;25099;51.946;4.838;2023-04-29T02:56:48;28.83;;;18.75;;
39370;SDS011;25099;51.946;4.838;2023-04-29T02:59:14;32.28;;;19.52;;
39370;SDS011;25099;51.946;4.838;2023-04-29T03:01:39;29.25;;;19.00;;
39370;SDS011;25099;51.946;4.838;2023-04-29T03:04:05;28.48;;;18.52;;
39370;SDS011;25099;51.946;4.838;2023-04-29T03:06:31;24.65;;;17.45;;
39370;SDS011;25099;51.946;4.838;2023-04-29T03:08:57;30.33;;;17.70;;
39370;SDS011;25099;51.946;4.838;2023-04-29T03:11:22;21.98;;;16.42;;
39370;SDS011;25099;51.946;4.838;2023-04-29T03:13:51;33.20;;;17.48;;
39370;SDS011;25099;51.946;4.838;2023-04-29T03:16:16;26.30;;;17.10;;
39370;SDS011;25099;51.946;4.838;2023-04-29T03:18:42;30.35;;;18.23;;
39370;SDS011;25099;51.946;4.838;2023-04-29T03:21:09;27.05;;;16.45;;
39370;SDS011;25099;51.946;4.838;2023-04-29T03:23:34;22.48;;;16.88;;
39370;SDS011;25099;51.946;4.838;2023-04-29T03:26:00;27.48;;;17.17;;
39370;SDS011;25099;51.946;4.838;2023-04-29T03:28:25;31.45;;;17.13;;
39370;SDS011;25099;51.946;4.838;2023-04-29T03:30:51;26.38;;;16.83;;
39370;SDS011;25099;51.946;4.838;2023-04-29T03:33:17;23.15;;;15.95;;
39370;SDS011;25099;51.946;4.838;2023-04-29T03:35:43;26.13;;;16.92;;
39370;SDS011;25099;51.946;4.838;2023-04-29T03:38:09;28.10;;;16.27;;
39370;SDS011;25099;51.946;4.838;2023-04-29T03:40:35;24.67;;;17.42;;
39370;SDS011;25099;51.946;4.838;2023-04-29T03:43:01;28.40;;;16.25;;
39370;SDS011;25099;51.946;4.838;2023-04-29T03:45:27;22.30;;;16.23;;
39370;SDS011;25099;51.946;4.838;2023-04-29T03:47:53;28.98;;;17.20;;
39370;SDS011;25099;51.946;4.838;2023-04-29T03:50:18;29.35;;;18.42;;
39370;SDS011;25099;51.946;4.838;2023-04-29T03:52:44;27.30;;;16.45;;
39370;SDS011;25099;51.946;4.838;2023-04-29T03:55:09;27.98;;;17.65;;
39370;SDS011;25099;51.946;4.838;2023-04-29T03:57:36;22.27;;;17.05;;
39370;SDS011;25099;51.946;4.838;2023-04-29T04:00:02;25.50;;;16.92;;
39370;SDS011;25099;51.946;4.838;2023-04-29T04:02:28;25.75;;;15.80;;
39370;SDS011;25099;51.946;4.838;2023-04-29T04:04:54;26.45;;;17.80;;
39370;SDS011;25099;51.946;4.838;2023-04-29T04:07:20;24.85;;;17.08;;
39370;SDS011;25099;51.946;4.838;2023-04-29T04:09:45;33.03;;;18.77;;
39370;SDS011;25099;51.946;4.838;2023-04-29T04:12:11;25.10;;;16.77;;
39370;SDS011;25099;51.946;4.838;2023-04-29T04:14:36;26.27;;;17.77;;
39370;SDS011;25099;51.946;4.838;2023-04-29T04:17:02;25.45;;;17.10;;
39370;SDS011;25099;51.946;4.838;2023-04-29T04:19:29;23.48;;;17.95;;
39370;SDS011;25099;51.946;4.838;2023-04-29T04:21:55;25.67;;;16.80;;
39370;SDS011;25099;51.946;4.838;2023-04-29T04:24:20;26.75;;;18.13;;
39370;SDS011;25099;51.946;4.838;2023-04-29T04:26:47;28.50;;;18.05;;
39370;SDS011;25099;51.946;4.838;2023-04-29T04:29:12;31.60;;;17.02;;
39370;SDS011;25099;51.946;4.838;2023-04-29T04:31:38;25.25;;;18.08;;
39370;SDS011;25099;51.946;4.838;2023-04-29T04:34:03;31.60;;;17.65;;
39370;SDS011;25099;51.946;4.838;2023-04-29T04:36:29;23.98;;;17.23;;
39370;SDS011;25099;51.946;4.838;2023-04-29T04:38:56;27.88;;;17.85;;
39370;SDS011;25099;51.946;4.838;2023-04-29T04:41:22;24.55;;;17.27;;
39370;SDS011;25099;51.946;4.838;2023-04-29T04:43:47;26.05;;;17.55;;
39370;SDS011;25099;51.946;4.838;2023-04-29T04:46:13;24.02;;;16.85;;
39370;SDS011;25099;51.946;4.838;2023-04-29T04:48:40;25.00;;;17.33;;
39370;SDS011;25099;51.946;4.838;2023-04-29T04:51:09;25.08;;;18.38;;
39370;SDS011;25099;51.946;4.838;2023-04-29T04:53:36;26.55;;;17.33;;
39370;SDS011;25099;51.946;4.838;2023-04-29T04:56:01;26.98;;;18.25;;
39370;SDS011;25099;51.946;4.838;2023-04-29T04:58:27;29.83;;;17.60;;
39370;SDS011;25099;51.946;4.838;2023-04-29T05:00:54;28.05;;;17.83;;
39370;SDS011;25099;51.946;4.838;2023-04-29T05:03:20;26.83;;;17.92;;
39370;SDS011;25099;51.946;4.838;2023-04-29T05:05:51;32.83;;;19.50;;
39370;SDS011;25099;51.946;4.838;2023-04-29T05:08:20;24.90;;;18.15;;
39370;SDS011;25099;51.946;4.838;2023-04-29T05:10:46;30.42;;;18.33;;
39370;SDS011;25099;51.946;4.838;2023-04-29T05:13:12;28.48;;;18.60;;
39370;SDS011;25099;51.946;4.838;2023-04-29T05:15:37;28.85;;;18.35;;
39370;SDS011;25099;51.946;4.838;2023-04-29T05:18:03;25.27;;;18.15;;
39370;SDS011;25099;51.946;4.838;2023-04-29T05:20:28;32.22;;;18.10;;
39370;SDS011;25099;51.946;4.838;2023-04-29T05:22:54;28.98;;;19.13;;
39370;SDS011;25099;51.946;4.838;2023-04-29T05:25:20;27.30;;;18.45;;
39370;SDS011;25099;51.946;4.838;2023-04-29T05:27:45;29.10;;;17.27;;
39370;SDS011;25099;51.946;4.838;2023-04-29T05:30:11;28.08;;;18.05;;
39370;SDS011;25099;51.946;4.838;2023-04-29T05:32:37;29.33;;;18.33;;
39370;SDS011;25099;51.946;4.838;2023-04-29T05:35:02;33.20;;;19.20;;
39370;SDS011;25099;51.946;4.838;2023-04-29T05:37:28;27.38;;;18.65;;
39370;SDS011;25099;51.946;4.838;2023-04-29T05:39:56;32.53;;;20.10;;
39370;SDS011;25099;51.946;4.838;2023-04-29T05:42:21;29.45;;;19.73;;
39370;SDS011;25099;51.946;4.838;2023-04-29T05:44:47;31.67;;;19.55;;
39370;SDS011;25099;51.946;4.838;2023-04-29T05:47:14;34.10;;;19.65;;
39370;SDS011;25099;51.946;4.838;2023-04-29T05:49:40;30.52;;;19.23;;
39370;SDS011;25099;51.946;4.838;2023-04-29T05:52:05;34.00;;;19.55;;
39370;SDS011;25099;51.946;4.838;2023-04-29T05:54:31;33.50;;;20.42;;
39370;SDS011;25099;51.946;4.838;2023-04-29T05:56:57;29.70;;;19.50;;
39370;SDS011;25099;51.946;4.838;2023-04-29T05:59:29;32.55;;;19.73;;
39370;SDS011;25099;51.946;4.838;2023-04-29T06:01:56;28.88;;;19.13;;
39370;SDS011;25099;51.946;4.838;2023-04-29T06:04:22;33.17;;;19.92;;
39370;SDS011;25099;51.946;4.838;2023-04-29T06:06:48;32.88;;;20.20;;
39370;SDS011;25099;51.946;4.838;2023-04-29T06:09:19;32.00;;;19.20;;
39370;SDS011;25099;51.946;4.838;2023-04-29T06:11:45;40.67;;;19.75;;
39370;SDS011;25099;51.946;4.838;2023-04-29T06:14:11;36.40;;;20.00;;
39370;SDS011;25099;51.946;4.838;2023-04-29T06:16:36;33.42;;;20.00;;
39370;SDS011;25099;51.946;4.838;2023-04-29T06:19:03;32.38;;;20.52;;
39370;SDS011;25099;51.946;4.838;2023-04-29T06:21:29;32.45;;;20.83;;
39370;SDS011;25099;51.946;4.838;2023-04-29T06:23:55;34.10;;;19.35;;
39370;SDS011;25099;51.946;4.838;2023-04-29T06:26:21;28.85;;;19.48;;
39370;SDS011;25099;51.946;4.838;2023-04-29T06:28:46;40.03;;;20.58;;
39370;SDS011;25099;51.946;4.838;2023-04-29T06:31:12;33.10;;;20.23;;
39370;SDS011;25099;51.946;4.838;2023-04-29T06:33:38;30.33;;;19.67;;
39370;SDS011;25099;51.946;4.838;2023-04-29T06:36:04;35.28;;;20.63;;
39370;SDS011;25099;51.946;4.838;2023-04-29T06:38:30;30.15;;;19.88;;
39370;SDS011;25099;51.946;4.838;2023-04-29T06:40:55;34.17;;;20.52;;
39370;SDS011;25099;51.946;4.838;2023-04-29T06:43:25;30.30;;;19.48;;
39370;SDS011;25099;51.946;4.838;2023-04-29T06:45:51;33.28;;;20.02;;
39370;SDS011;25099;51.946;4.838;2023-04-29T06:48:17;34.33;;;19.73;;
39370;SDS011;25099;51.946;4.838;2023-04-29T06:50:52;28.52;;;17.73;;
39370;SDS011;25099;51.946;4.838;2023-04-29T06:53:19;27.15;;;17.98;;
39370;SDS011;25099;51.946;4.838;2023-04-29T06:55:45;30.98;;;19.67;;
39370;SDS011;25099;51.946;4.838;2023-04-29T06:58:11;23.13;;;17.50;;
39370;SDS011;25099;51.946;4.838;2023-04-29T07:00:38;24.95;;;17.73;;
39370;SDS011;25099;51.946;4.838;2023-04-29T07:03:04;28.85;;;17.23;;
39370;SDS011;25099;51.946;4.838;2023-04-29T07:05:29;25.45;;;17.30;;
39370;SDS011;25099;51.946;4.838;2023-04-29T07:07:55;27.13;;;18.30;;
39370;SDS011;25099;51.946;4.838;2023-04-29T07:10:21;30.40;;;17.67;;
39370;SDS011;25099;51.946;4.838;2023-04-29T07:12:47;30.40;;;17.40;;
39370;SDS011;25099;51.946;4.838;2023-04-29T07:15:12;26.33;;;17.02;;
39370;SDS011;25099;51.946;4.838;2023-04-29T07:17:38;28.63;;;16.98;;
39370;SDS011;25099;51.946;4.838;2023-04-29T07:20:04;24.67;;;16.52;;
39370;SDS011;25099;51.946;4.838;2023-04-29T07:22:30;36.45;;;18.20;;
39370;SDS011;25099;51.946;4.838;2023-04-29T07:24:56;23.38;;;17.17;;
39370;SDS011;25099;51.946;4.838;2023-04-29T07:27:22;24.63;;;16.75;;
39370;SDS011;25099;51.946;4.838;2023-04-29T07:29:48;26.40;;;17.50;;
39370;SDS011;25099;51.946;4.838;2023-04-29T07:32:14;30.48;;;16.08;;
39370;SDS011;25099;51.946;4.838;2023-04-29T07:34:40;26.67;;;16.67;;
39370;SDS011;25099;51.946;4.838;2023-04-29T07:37:05;26.40;;;15.30;;
39370;SDS011;25099;51.946;4.838;2023-04-29T07:39:37;26.63;;;16.40;;
39370;SDS011;25099;51.946;4.838;2023-04-29T07:42:03;25.10;;;15.73;;
39370;SDS011;25099;51.946;4.838;2023-04-29T07:44:29;28.00;;;16.55;;
39370;SDS011;25099;51.946;4.838;2023-04-29T07:46:54;26.08;;;16.45;;
39370;SDS011;25099;51.946;4.838;2023-04-29T07:49:20;23.90;;;15.07;;
39370;SDS011;25099;51.946;4.838;2023-04-29T07:51:45;25.45;;;15.32;;
39370;SDS011;25099;51.946;4.838;2023-04-29T07:54:11;23.27;;;14.50;;
39370;SDS011;25099;51.946;4.838;2023-04-29T07:56:36;22.85;;;14.95;;
39370;SDS011;25099;51.946;4.838;2023-04-29T07:59:02;26.35;;;13.50;;
39370;SDS011;25099;51.946;4.838;2023-04-29T08:01:27;26.52;;;11.43;;
39370;SDS011;25099;51.946;4.838;2023-04-29T08:03:53;25.95;;;13.18;;
39370;SDS011;25099;51.946;4.838;2023-04-29T08:06:19;19.17;;;13.45;;
39370;SDS011;25099;51.946;4.838;2023-04-29T08:08:46;18.15;;;13.52;;
39370;SDS011;25099;51.946;4.838;2023-04-29T08:11:19;17.40;;;13.65;;
39370;SDS011;25099;51.946;4.838;2023-04-29T08:13:45;23.85;;;12.85;;
39370;SDS011;25099;51.946;4.838;2023-04-29T08:16:11;15.15;;;12.77;;
39370;SDS011;25099;51.946;4.838;2023-04-29T08:18:38;22.58;;;12.73;;
39370;SDS011;25099;51.946;4.838;2023-04-29T08:21:03;19.55;;;12.38;;
39370;SDS011;25099;51.946;4.838;2023-04-29T08:23:29;20.55;;;12.35;;
39370;SDS011;25099;51.946;4.838;2023-04-29T08:25:56;17.00;;;12.20;;
39370;SDS011;25099;51.946;4.838;2023-04-29T08:28:21;17.92;;;12.20;;
39370;SDS011;25099;51.946;4.838;2023-04-29T08:30:47;19.02;;;12.18;;
39370;SDS011;25099;51.946;4.838;2023-04-29T08:33:13;21.55;;;12.70;;
39370;SDS011;25099;51.946;4.838;2023-04-29T08:35:39;15.68;;;11.30;;
39370;SDS011;25099;51.946;4.838;2023-04-29T08:38:05;14.55;;;11.48;;
39370;SDS011;25099;51.946;4.838;2023-04-29T08:40:35;18.90;;;11.25;;
39370;SDS011;25099;51.946;4.838;2023-04-29T08:43:05;15.23;;;11.68;;
39370;SDS011;25099;51.946;4.838;2023-04-29T08:45:33;23.02;;;13.15;;
39370;SDS011;25099;51.946;4.838;2023-04-29T08:48:00;20.67;;;12.55;;
39370;SDS011;25099;51.946;4.838;2023-04-29T08:50:27;14.27;;;11.73;;
39370;SDS011;25099;51.946;4.838;2023-04-29T08:52:54;21.67;;;13.52;;
39370;SDS011;25099;51.946;4.838;2023-04-29T08:55:20;19.73;;;12.57;;
39370;SDS011;25099;51.946;4.838;2023-04-29T08:57:46;16.73;;;11.27;;
39370;SDS011;25099;51.946;4.838;2023-04-29T09:00:14;18.83;;;12.15;;
39370;SDS011;25099;51.946;4.838;2023-04-29T09:02:44;14.82;;;10.70;;
39370;SDS011;25099;51.946;4.838;2023-04-29T09:05:13;13.57;;;10.35;;
39370;SDS011;25099;51.946;4.838;2023-04-29T09:07:39;19.23;;;10.98;;
39370;SDS011;25099;51.946;4.838;2023-04-29T09:10:06;18.30;;;10.88;;
39370;SDS011;25099;51.946;4.838;2023-04-29T09:12:32;16.77;;;10.77;;
39370;SDS011;25099;51.946;4.838;2023-04-29T09:14:58;14.70;;;10.55;;
39370;SDS011;25099;51.946;4.838;2023-04-29T09:20:27;10.82;;;9.82;;
39370;SDS011;25099;51.946;4.838;2023-04-29T09:22:53;18.75;;;10.35;;
39370;SDS011;25099;51.946;4.838;2023-04-29T09:25:23;20.45;;;9.50;;
39370;SDS011;25099;51.946;4.838;2023-04-29T09:27:48;15.00;;;11.00;;
39370;SDS011;25099;51.946;4.838;2023-04-29T09:30:15;13.10;;;9.70;;
39370;SDS011;25099;51.946;4.838;2023-04-29T09:32:41;16.25;;;10.40;;
39370;SDS011;25099;51.946;4.838;2023-04-29T09:35:40;16.10;;;10.30;;
39370;SDS011;25099;51.946;4.838;2023-04-29T09:38:12;12.70;;;10.65;;
39370;SDS011;25099;51.946;4.838;2023-04-29T09:40:38;12.27;;;9.73;;
39370;SDS011;25099;51.946;4.838;2023-04-29T10:23:25;11.07;;;7.80;;
39370;SDS011;25099;51.946;4.838;2023-04-29T10:25:51;12.30;;;7.53;;
39370;SDS011;25099;51.946;4.838;2023-04-29T10:28:17;12.18;;;8.32;;
39370;SDS011;25099;51.946;4.838;2023-04-29T10:30:44;11.73;;;8.98;;
39370;SDS011;25099;51.946;4.838;2023-04-29T10:33:13;9.70;;;8.83;;
39370;SDS011;25099;51.946;4.838;2023-04-29T10:35:41;8.40;;;7.60;;
39370;SDS011;25099;51.946;4.838;2023-04-29T10:38:16;10.30;;;7.13;;
39370;SDS011;25099;51.946;4.838;2023-04-29T10:40:50;7.63;;;6.80;;
39370;SDS011;25099;51.946;4.838;2023-04-29T10:43:23;10.68;;;7.82;;
39370;SDS011;25099;51.946;4.838;2023-04-29T10:46:15;9.18;;;8.38;;
39370;SDS011;25099;51.946;4.838;2023-04-29T10:48:43;8.90;;;7.03;;
39370;SDS011;25099;51.946;4.838;2023-04-29T10:51:09;8.68;;;7.38;;
39370;SDS011;25099;51.946;4.838;2023-04-29T10:53:35;11.48;;;8.45;;
39370;SDS011;25099;51.946;4.838;2023-04-29T10:56:20;7.40;;;6.70;;
39370;SDS011;25099;51.946;4.838;2023-04-29T10:58:46;9.48;;;7.82;;
39370;SDS011;25099;51.946;4.838;2023-04-29T11:01:12;9.38;;;7.85;;
39370;SDS011;25099;51.946;4.838;2023-04-29T11:06:25;8.90;;;7.75;;
39370;SDS011;25099;51.946;4.838;2023-04-29T11:09:18;11.82;;;8.00;;
39370;SDS011;25099;51.946;4.838;2023-04-29T11:14:25;9.80;;;8.05;;
39370;SDS011;25099;51.946;4.838;2023-04-29T11:16:58;17.90;;;9.07;;
39370;SDS011;25099;51.946;4.838;2023-04-29T11:19:35;14.77;;;8.30;;
39370;SDS011;25099;51.946;4.838;2023-04-29T11:24:58;9.93;;;8.00;;
39370;SDS011;25099;51.946;4.838;2023-04-29T11:27:30;14.45;;;8.75;;
39370;SDS011;25099;51.946;4.838;2023-04-29T11:29:57;9.40;;;7.47;;
39370;SDS011;25099;51.946;4.838;2023-04-29T11:32:24;8.60;;;7.68;;
39370;SDS011;25099;51.946;4.838;2023-04-29T11:34:51;15.63;;;6.75;;
39370;SDS011;25099;51.946;4.838;2023-04-29T11:37:24;11.70;;;7.75;;
39370;SDS011;25099;51.946;4.838;2023-04-29T11:39:50;9.88;;;7.45;;
39370;SDS011;25099;51.946;4.838;2023-04-29T11:42:22;11.50;;;7.55;;
39370;SDS011;25099;51.946;4.838;2023-04-29T11:44:52;8.10;;;7.20;;
39370;SDS011;25099;51.946;4.838;2023-04-29T11:47:21;7.95;;;6.78;;
39370;SDS011;25099;51.946;4.838;2023-04-29T11:49:50;11.35;;;7.68;;
39370;SDS011;25099;51.946;4.838;2023-04-29T11:52:16;8.23;;;6.32;;
39370;SDS011;25099;51.946;4.838;2023-04-29T11:54:41;10.30;;;6.53;;
39370;SDS011;25099;51.946;4.838;2023-04-29T11:57:09;9.50;;;7.00;;
39370;SDS011;25099;51.946;4.838;2023-04-29T11:59:35;8.50;;;6.70;;
39370;SDS011;25099;51.946;4.838;2023-04-29T12:02:00;6.50;;;5.50;;
39370;SDS011;25099;51.946;4.838;2023-04-29T12:04:26;6.03;;;5.30;;
39370;SDS011;25099;51.946;4.838;2023-04-29T12:06:51;5.20;;;4.70;;
39370;SDS011;25099;51.946;4.838;2023-04-29T12:09:17;5.32;;;4.78;;
39370;SDS011;25099;51.946;4.838;2023-04-29T12:11:43;6.78;;;4.63;;
39370;SDS011;25099;51.946;4.838;2023-04-29T12:14:09;4.45;;;4.05;;
39370;SDS011;25099;51.946;4.838;2023-04-29T12:16:35;4.50;;;4.00;;
39370;SDS011;25099;51.946;4.838;2023-04-29T12:19:01;8.00;;;4.38;;
39370;SDS011;25099;51.946;4.838;2023-04-29T12:21:26;7.40;;;4.72;;
39370;SDS011;25099;51.946;4.838;2023-04-29T12:23:52;5.85;;;4.53;;
39370;SDS011;25099;51.946;4.838;2023-04-29T12:26:18;7.40;;;4.68;;
39370;SDS011;25099;51.946;4.838;2023-04-29T12:28:45;8.70;;;4.78;;
39370;SDS011;25099;51.946;4.838;2023-04-29T12:31:10;6.63;;;5.88;;
39370;SDS011;25099;51.946;4.838;2023-04-29T12:33:41;6.03;;;5.20;;
39370;SDS011;25099;51.946;4.838;2023-04-29T12:36:14;5.45;;;4.82;;
39370;SDS011;25099;51.946;4.838;2023-04-29T12:38:42;5.13;;;4.30;;
39370;SDS011;25099;51.946;4.838;2023-04-29T12:41:07;7.40;;;5.20;;
39370;SDS011;25099;51.946;4.838;2023-04-29T12:43:33;5.38;;;4.88;;
39370;SDS011;25099;51.946;4.838;2023-04-29T12:46:03;6.28;;;4.38;;
39370;SDS011;25099;51.946;4.838;2023-04-29T12:48:30;4.53;;;3.80;;
39370;SDS011;25099;51.946;4.838;2023-04-29T12:50:56;4.85;;;3.53;;
39370;SDS011;25099;51.946;4.838;2023-04-29T12:53:24;5.22;;;3.95;;
39370;SDS011;25099;51.946;4.838;2023-04-29T12:55:51;6.25;;;4.68;;
39370;SDS011;25099;51.946;4.838;2023-04-29T12:58:17;9.23;;;4.97;;
39370;SDS011;25099;51.946;4.838;2023-04-29T13:00:43;5.32;;;4.10;;
39370;SDS011;25099;51.946;4.838;2023-04-29T13:03:08;6.35;;;4.05;;
39370;SDS011;25099;51.946;4.838;2023-04-29T13:05:34;4.68;;;4.22;;
39370;SDS011;25099;51.946;4.838;2023-04-29T13:41:07;4.88;;;4.25;;
39370;SDS011;25099;51.946;4.838;2023-04-29T13:43:33;11.77;;;4.32;;
39370;SDS011;25099;51.946;4.838;2023-04-29T13:45:59;5.72;;;4.53;;
39370;SDS011;25099;51.946;4.838;2023-04-29T13:48:24;5.43;;;4.15;;
39370;SDS011;25099;51.946;4.838;2023-04-29T13:50:50;6.18;;;4.95;;
39370;SDS011;25099;51.946;4.838;2023-04-29T13:53:16;5.57;;;4.18;;
39370;SDS011;25099;51.946;4.838;2023-04-29T13:55:41;6.45;;;3.92;;
39370;SDS011;25099;51.946;4.838;2023-04-29T13:58:07;9.23;;;5.57;;
39370;SDS011;25099;51.946;4.838;2023-04-29T14:00:33;7.38;;;6.55;;
39370;SDS011;25099;51.946;4.838;2023-04-29T14:02:58;8.18;;;5.88;;
39370;SDS011;25099;51.946;4.838;2023-04-29T14:05:24;7.13;;;6.05;;
39370;SDS011;25099;51.946;4.838;2023-04-29T14:07:50;8.15;;;5.78;;
39370;SDS011;25099;51.946;4.838;2023-04-29T14:10:16;8.45;;;5.65;;
39370;SDS011;25099;51.946;4.838;2023-04-29T14:12:42;8.45;;;6.38;;
39370;SDS011;25099;51.946;4.838;2023-04-29T14:15:07;9.15;;;6.25;;
39370;SDS011;25099;51.946;4.838;2023-04-29T14:17:34;7.10;;;5.70;;
39370;SDS011;25099;51.946;4.838;2023-04-29T14:20:00;8.20;;;5.65;;
39370;SDS011;25099;51.946;4.838;2023-04-29T14:22:26;7.07;;;5.80;;
39370;SDS011;25099;51.946;4.838;2023-04-29T14:24:52;7.60;;;5.90;;
39370;SDS011;25099;51.946;4.838;2023-04-29T14:27:17;8.68;;;6.03;;
39370;SDS011;25099;51.946;4.838;2023-04-29T14:29:42;8.98;;;6.82;;
39370;SDS011;25099;51.946;4.838;2023-04-29T14:32:08;9.27;;;6.57;;
39370;SDS011;25099;51.946;4.838;2023-04-29T14:34:34;10.75;;;6.05;;
39370;SDS011;25099;51.946;4.838;2023-04-29T14:37:00;10.48;;;6.13;;
39370;SDS011;25099;51.946;4.838;2023-04-29T14:39:26;6.82;;;6.15;;
39370;SDS011;25099;51.946;4.838;2023-04-29T14:41:51;6.68;;;5.45;;
39370;SDS011;25099;51.946;4.838;2023-04-29T14:44:17;9.65;;;6.10;;
39370;SDS011;25099;51.946;4.838;2023-04-29T14:46:42;8.55;;;6.95;;
39370;SDS011;25099;51.946;4.838;2023-04-29T14:49:08;8.57;;;6.72;;
39370;SDS011;25099;51.946;4.838;2023-04-29T14:51:34;7.68;;;6.97;;
39370;SDS011;25099;51.946;4.838;2023-04-29T14:53:59;8.43;;;6.95;;
39370;SDS011;25099;51.946;4.838;2023-04-29T14:56:25;7.03;;;5.82;;
39370;SDS011;25099;51.946;4.838;2023-04-29T14:58:51;10.80;;;7.35;;
39370;SDS011;25099;51.946;4.838;2023-04-29T15:01:17;7.60;;;6.85;;
39370;SDS011;25099;51.946;4.838;2023-04-29T15:03:42;10.23;;;7.13;;
39370;SDS011;25099;51.946;4.838;2023-04-29T15:06:08;7.55;;;6.80;;
39370;SDS011;25099;51.946;4.838;2023-04-29T15:08:33;9.57;;;6.95;;
39370;SDS011;25099;51.946;4.838;2023-04-29T15:10:59;7.15;;;6.45;;
39370;SDS011;25099;51.946;4.838;2023-04-29T15:13:25;7.70;;;6.93;;
39370;SDS011;25099;51.946;4.838;2023-04-29T15:15:50;9.15;;;6.85;;
39370;SDS011;25099;51.946;4.838;2023-04-29T15:18:16;7.57;;;6.82;;
39370;SDS011;25099;51.946;4.838;2023-04-29T15:20:41;8.88;;;6.65;;
39370;SDS011;25099;51.946;4.838;2023-04-29T15:23:07;13.57;;;6.90;;
39370;SDS011;25099;51.946;4.838;2023-04-29T15:25:32;7.75;;;7.03;;
39370;SDS011;25099;51.946;4.838;2023-04-29T15:27:58;7.10;;;6.40;;
39370;SDS011;25099;51.946;4.838;2023-04-29T15:30:28;9.50;;;7.35;;
39370;SDS011;25099;51.946;4.838;2023-04-29T15:32:53;8.10;;;6.63;;
39370;SDS011;25099;51.946;4.838;2023-04-29T15:35:19;10.30;;;7.35;;
39370;SDS011;25099;51.946;4.838;2023-04-29T15:37:44;10.05;;;7.22;;
39370;SDS011;25099;51.946;4.838;2023-04-29T15:40:10;10.35;;;6.65;;
39370;SDS011;25099;51.946;4.838;2023-04-29T15:42:36;12.30;;;6.78;;
39370;SDS011;25099;51.946;4.838;2023-04-29T15:45:02;10.32;;;7.97;;
39370;SDS011;25099;51.946;4.838;2023-04-29T15:47:28;8.30;;;7.15;;
39370;SDS011;25099;51.946;4.838;2023-04-29T15:49:53;10.73;;;6.82;;
39370;SDS011;25099;51.946;4.838;2023-04-29T15:52:20;7.38;;;6.68;;
39370;SDS011;25099;51.946;4.838;2023-04-29T15:54:46;7.78;;;6.53;;
39370;SDS011;25099;51.946;4.838;2023-04-29T15:57:12;7.72;;;5.93;;
39370;SDS011;25099;51.946;4.838;2023-04-29T15:59:38;9.65;;;6.82;;
39370;SDS011;25099;51.946;4.838;2023-04-29T16:02:03;6.20;;;5.60;;
39370;SDS011;25099;51.946;4.838;2023-04-29T16:04:34;8.68;;;6.47;;
39370;SDS011;25099;51.946;4.838;2023-04-29T16:07:00;11.95;;;7.05;;
39370;SDS011;25099;51.946;4.838;2023-04-29T16:09:29;10.13;;;6.20;;